Back to top

Lander, WY weather

Hunt Field Airport, Lander, WY: 7/04/2020 03:53
Visibility10 statute milessun with a few clouds
View 7-Day Forecast
Area Summary
Sky/CloudsFew at 11000ft
Weather [last 24 hours]None
Pressure30.17 in.Hg (1022 hPa)
Dew Point37 °F (2.8 °C)
Relative Humidity33.2 %
Temperature66.9 °F (19.4 °C)red thermometer
Reading TimeMinimum to Maximum Temperature
6-hr ending 7/3@23:5373 °F to 90 °F (22.8 °C to 32.2 °C)
6-hr ending 7/3@17:5382 °F to 91.9 °F (27.8 °C to 33.3 °C)
6-hr ending 7/3@11:5355.9 °F to 82 °F (13.3 °C to 27.8 °C)
6-hr ending 7/3@05:5355 °F to 68 °F (12.8 °C to 20 °C)
24-hr ending 7/4@00:5355 °F to 91.9 °F (12.8 °C to 33.3 °C)
Wind4.6 MPH (4 KT) green arrow pointing 270 degrees
Wind FromWest (260 Degrees)
Rolling 24-hr Peak Wind33.4 MPH (29 KT) on 7/3@15:34
Rolling 24-hr Peak Wind FromSouthwest (220 Degrees)
Twilight Begins05:06Sunshine Yesterday
Sunrise05:41N/A
Sunset20:58
Twilight Ends21:33
METARKLND 040953Z AUTO 26004KT 10SM FEW110 19/03 A3017 RMK AO2 SLP136 T01940028
Tags: